Time;durP1;ratioP1;P1;durP2;ratioP2;P2;SDS_P1;SDS_P2;PMS_P1;PMS_P2;Temp;Humidity;BMP_temperature;BMP_pressure;BME280_temperature;BME280_humidity;BME280_pressure;Samples;Min_cycle;Max_cycle;Signal;HPM_P1;HPM_P2
2021/04/27 00:00:33;;;;;;;9.25;6.15;;;;;;;;;;4923091;29;20055;-86
2021/04/27 00:02:59;;;;;;;10.13;7.03;;;;;;;;;;4923007;29;20454;-87
2021/04/27 00:11:32;;;;;;;9.95;6.30;;;;;;;;;;4923017;29;20035;-88
2021/04/27 00:13:59;;;;;;;7.43;6.10;;;;;;;;;;4923115;29;20076;-89
2021/04/27 00:16:25;;;;;;;8.48;5.95;;;;;;;;;;4906009;29;20031;-88
2021/04/27 00:21:55;;;;;;;7.30;5.80;;;;;;;;;;4922752;29;20055;-90
2021/04/27 00:24:21;;;;;;;6.95;5.60;;;;;;;;;;4922480;29;20078;-91
2021/04/27 00:26:47;;;;;;;10.98;6.05;;;;;;;;;;4906107;29;20039;-89
2021/04/27 00:29:13;;;;;;;7.35;6.13;;;;;;;;;;4921923;29;20112;-90
2021/04/27 00:31:39;;;;;;;8.35;5.82;;;;;;;;;;4922300;29;20423;-88
2021/04/27 00:37:09;;;;;;;9.15;6.57;;;;;;;;;;4922528;29;20091;-89
2021/04/27 00:39:35;;;;;;;9.07;6.53;;;;;;;;;;4922654;29;20096;-89
2021/04/27 00:42:01;;;;;;;8.63;6.85;;;;;;;;;;4922381;29;20021;-90
2021/04/27 00:44:28;;;;;;;8.13;6.35;;;;;;;;;;4922473;29;20020;-89
2021/04/27 00:46:54;;;;;;;7.65;5.82;;;;;;;;;;4922392;29;20028;-89
2021/04/27 00:52:24;;;;;;;9.50;6.57;;;;;;;;;;4922164;29;20043;-88
2021/04/27 00:54:51;;;;;;;9.70;7.05;;;;;;;;;;4921862;29;20454;-89
2021/04/27 00:57:18;;;;;;;10.45;6.95;;;;;;;;;;4921901;29;20039;-90
2021/04/27 00:59:44;;;;;;;9.45;6.45;;;;;;;;;;4905449;29;20020;-90
2021/04/27 01:02:10;;;;;;;7.72;6.47;;;;;;;;;;4921890;29;20028;-91
2021/04/27 01:04:36;;;;;;;9.38;6.57;;;;;;;;;;4922985;29;20375;-92
2021/04/27 01:07:03;;;;;;;8.63;6.40;;;;;;;;;;4922393;29;20024;-90
2021/04/27 01:09:46;;;;;;;8.30;6.25;;;;;;;;;;4921479;29;20028;-91
2021/04/27 01:12:12;;;;;;;8.70;6.20;;;;;;;;;;4905057;29;20021;-91
2021/04/27 01:14:40;;;;;;;7.47;5.97;;;;;;;;;;4921938;29;20031;-92
2021/04/27 01:17:07;;;;;;;7.78;6.22;;;;;;;;;;4921591;29;20035;-89
2021/04/27 01:22:57;;;;;;;9.38;6.47;;;;;;;;;;4921592;29;20332;-90
2021/04/27 01:25:26;;;;;;;9.23;6.70;;;;;;;;;;4904964;29;20046;-89
2021/04/27 01:27:52;;;;;;;9.50;6.38;;;;;;;;;;4921814;29;20028;-91
2021/04/27 01:30:19;;;;;;;9.63;6.55;;;;;;;;;;4921744;29;20481;-89
2021/04/27 01:32:45;;;;;;;10.60;7.05;;;;;;;;;;4921440;29;20416;-91
2021/04/27 01:41:18;;;;;;;10.05;6.65;;;;;;;;;;4920977;29;20150;-91
2021/04/27 01:43:46;;;;;;;8.73;6.57;;;;;;;;;;4921595;29;20316;-90
2021/04/27 01:46:12;;;;;;;9.00;6.78;;;;;;;;;;4921515;29;20025;-91
2021/04/27 01:48:39;;;;;;;9.88;7.00;;;;;;;;;;4921387;29;20412;-90
2021/04/27 01:51:08;;;;;;;12.52;7.47;;;;;;;;;;4904239;29;20042;-90
2021/04/27 01:53:36;;;;;;;9.70;6.65;;;;;;;;;;4904689;29;20032;-89
2021/04/27 01:56:02;;;;;;;12.35;8.85;;;;;;;;;;4921476;29;20036;-89
2021/04/27 01:58:28;;;;;;;12.68;8.70;;;;;;;;;;4921078;29;20107;-90
2021/04/27 02:00:54;;;;;;;13.88;9.18;;;;;;;;;;4921364;29;20030;-90
2021/04/27 02:03:20;;;;;;;12.88;8.05;;;;;;;;;;4921231;29;20051;-89
2021/04/27 02:05:46;;;;;;;13.70;8.70;;;;;;;;;;4921169;29;20422;-88
2021/04/27 02:08:12;;;;;;;10.80;8.10;;;;;;;;;;4921402;29;20039;-89
2021/04/27 02:10:38;;;;;;;11.32;8.20;;;;;;;;;;4921425;29;20032;-90
2021/04/27 02:13:07;;;;;;;10.82;7.53;;;;;;;;;;4921306;29;20068;-89
2021/04/27 02:15:35;;;;;;;10.02;7.65;;;;;;;;;;4921328;29;20036;-89
2021/04/27 02:18:04;;;;;;;9.07;7.38;;;;;;;;;;4921172;29;20042;-88
2021/04/27 02:23:36;;;;;;;11.20;8.18;;;;;;;;;;4915020;29;20047;-88
2021/04/27 02:26:03;;;;;;;11.07;8.32;;;;;;;;;;4920969;29;20068;-91
2021/04/27 02:28:29;;;;;;;11.02;8.13;;;;;;;;;;4904364;29;20029;-91
2021/04/27 02:30:55;;;;;;;14.05;8.57;;;;;;;;;;4921221;29;20429;-92
2021/04/27 02:33:22;;;;;;;13.93;8.95;;;;;;;;;;4921166;29;20036;-92
2021/04/27 02:42:05;;;;;;;11.73;8.10;;;;;;;;;;4921240;29;20071;-91
2021/04/27 02:44:31;;;;;;;12.73;8.63;;;;;;;;;;4921163;29;20103;-88
2021/04/27 02:46:57;;;;;;;10.35;7.97;;;;;;;;;;4921146;29;20067;-88
2021/04/27 02:52:27;;;;;;;11.35;8.48;;;;;;;;;;4921180;29;20055;-88
2021/04/27 02:54:53;;;;;;;12.63;9.07;;;;;;;;;;4924200;29;20131;-88
2021/04/27 02:57:20;;;;;;;9.77;8.13;;;;;;;;;;4924033;29;20031;-88
2021/04/27 02:59:46;;;;;;;11.23;8.32;;;;;;;;;;4924302;29;20380;-89
2021/04/27 03:02:12;;;;;;;12.60;8.50;;;;;;;;;;4924377;29;20031;-88
2021/04/27 03:07:42;;;;;;;10.27;8.25;;;;;;;;;;4924157;29;20063;-90
2021/04/27 03:10:08;;;;;;;11.25;8.52;;;;;;;;;;4923988;29;20025;-89
2021/04/27 03:12:34;;;;;;;13.98;8.45;;;;;;;;;;4924253;29;20035;-89
2021/04/27 03:15:01;;;;;;;13.15;8.50;;;;;;;;;;4907197;29;20070;-89
2021/04/27 03:17:27;;;;;;;11.10;8.45;;;;;;;;;;4906845;29;20467;-90
2021/04/27 03:22:57;;;;;;;10.82;8.00;;;;;;;;;;4923981;29;20032;-89
2021/04/27 03:25:23;;;;;;;12.57;8.45;;;;;;;;;;4923433;29;20068;-89
2021/04/27 03:27:50;;;;;;;11.05;8.23;;;;;;;;;;4923553;29;20032;-89
2021/04/27 03:30:16;;;;;;;12.52;8.25;;;;;;;;;;4906996;29;20028;-92
2021/04/27 03:32:42;;;;;;;14.05;9.20;;;;;;;;;;4923725;29;20032;-91
2021/04/27 03:35:10;;;;;;;10.80;8.80;;;;;;;;;;4923517;29;20028;-92
2021/04/27 03:37:36;;;;;;;10.68;8.65;;;;;;;;;;4906725;29;20024;-92
2021/04/27 03:40:03;;;;;;;14.80;8.98;;;;;;;;;;4923338;29;20020;-92
2021/04/27 03:42:29;;;;;;;10.45;8.13;;;;;;;;;;4906872;29;20039;-91
2021/04/27 03:44:56;;;;;;;10.65;8.23;;;;;;;;;;4906735;29;20025;-87
2021/04/27 03:47:22;;;;;;;12.80;9.30;;;;;;;;;;4923242;29;20024;-86
2021/04/27 03:52:51;;;;;;;11.52;8.98;;;;;;;;;;4923374;29;20442;-89
2021/04/27 03:55:17;;;;;;;13.43;9.52;;;;;;;;;;4923394;29;20087;-90
2021/04/27 03:57:43;;;;;;;13.27;9.85;;;;;;;;;;4923269;29;20024;-91
2021/04/27 04:00:10;;;;;;;12.73;10.20;;;;;;;;;;4922714;29;20028;-90
2021/04/27 04:02:36;;;;;;;12.50;9.82;;;;;;;;;;4923082;29;20035;-90
2021/04/27 04:14:13;;;;;;;16.95;11.88;;;;;;;;;;4923136;29;20126;-88
2021/04/27 04:16:39;;;;;;;14.85;10.98;;;;;;;;;;4922678;29;20024;-90
2021/04/27 04:19:05;;;;;;;17.38;12.73;;;;;;;;;;4906134;29;20410;-90
2021/04/27 04:24:42;;;;;;;15.15;11.43;;;;;;;;;;4912103;29;20096;-89
2021/04/27 04:27:08;;;;;;;14.15;11.93;;;;;;;;;;4905908;29;20058;-92
2021/04/27 04:29:34;;;;;;;15.35;12.15;;;;;;;;;;4922493;29;20059;-93
2021/04/27 04:32:00;;;;;;;16.42;11.13;;;;;;;;;;4905815;29;20415;-90
2021/04/27 04:34:26;;;;;;;15.02;11.52;;;;;;;;;;4922694;29;20039;-91
2021/04/27 04:36:52;;;;;;;14.45;11.40;;;;;;;;;;4905755;29;20028;-91
2021/04/27 04:39:19;;;;;;;16.83;12.68;;;;;;;;;;4922283;29;20032;-90
2021/04/27 04:41:45;;;;;;;16.35;11.98;;;;;;;;;;4922544;29;20028;-92
2021/04/27 04:44:11;;;;;;;19.52;12.65;;;;;;;;;;4922673;29;20043;-91
2021/04/27 04:46:37;;;;;;;16.05;11.52;;;;;;;;;;4905445;29;20156;-91
2021/04/27 04:49:04;;;;;;;14.95;11.55;;;;;;;;;;4922317;29;20052;-91
2021/04/27 04:54:33;;;;;;;15.35;11.75;;;;;;;;;;4922296;29;20132;-90
2021/04/27 04:56:59;;;;;;;16.17;13.20;;;;;;;;;;4905079;29;20035;-89
2021/04/27 04:59:26;;;;;;;18.88;13.10;;;;;;;;;;4905267;29;20079;-89
2021/04/27 05:01:52;;;;;;;16.80;11.93;;;;;;;;;;4934830;29;20429;-92
2021/04/27 05:04:18;;;;;;;22.52;15.15;;;;;;;;;;4923937;29;20067;-90
2021/04/27 05:09:48;;;;;;;32.92;22.15;;;;;;;;;;4941073;29;20046;-90
2021/04/27 05:12:14;;;;;;;22.40;15.43;;;;;;;;;;4939936;29;20314;-90
2021/04/27 05:14:41;;;;;;;21.05;14.73;;;;;;;;;;4922645;29;20055;-89
2021/04/27 05:17:07;;;;;;;26.83;19.45;;;;;;;;;;4921334;29;20099;-90
2021/04/27 05:19:33;;;;;;;104.30;57.05;;;;;;;;;;4938419;29;20051;-87
2021/04/27 05:22:19;;;;;;;106.30;58.00;;;;;;;;;;4923773;29;20039;-88
2021/04/27 05:24:45;;;;;;;85.70;48.53;;;;;;;;;;4924390;29;20028;-88
2021/04/27 05:27:11;;;;;;;38.80;26.33;;;;;;;;;;4905085;29;20411;-88
2021/04/27 05:29:37;;;;;;;33.25;21.88;;;;;;;;;;4921728;29;20028;-88
2021/04/27 05:32:04;;;;;;;25.38;18.00;;;;;;;;;;4921409;29;20024;-89
2021/04/27 05:34:30;;;;;;;23.35;16.92;;;;;;;;;;4904779;29;20173;-88
2021/04/27 05:36:56;;;;;;;23.42;16.83;;;;;;;;;;4921427;29;20475;-89
2021/04/27 05:39:22;;;;;;;24.70;18.40;;;;;;;;;;4921544;29;20028;-90
2021/04/27 05:41:48;;;;;;;34.60;22.65;;;;;;;;;;4920601;29;20067;-92
2021/04/27 05:44:14;;;;;;;31.10;23.10;;;;;;;;;;4919863;29;20088;-91
2021/04/27 05:46:41;;;;;;;30.38;21.67;;;;;;;;;;4921418;29;20311;-89
2021/04/27 05:49:07;;;;;;;30.48;21.20;;;;;;;;;;4921323;29;20039;-89
2021/04/27 05:54:36;;;;;;;38.63;24.77;;;;;;;;;;4921299;29;20112;-90
2021/04/27 05:57:03;;;;;;;28.70;19.50;;;;;;;;;;4920316;29;20308;-93
2021/04/27 05:59:29;;;;;;;28.67;18.77;;;;;;;;;;4921516;29;20040;-93
2021/04/27 06:01:55;;;;;;;29.63;19.95;;;;;;;;;;4920598;29;20030;-92
2021/04/27 06:04:21;;;;;;;27.13;18.20;;;;;;;;;;4921795;29;20020;-92
2021/04/27 06:09:50;;;;;;;17.58;14.07;;;;;;;;;;4921449;29;20442;-90
2021/04/27 06:12:16;;;;;;;18.48;13.80;;;;;;;;;;4922168;29;20072;-94
2021/04/27 06:14:43;;;;;;;18.38;13.75;;;;;;;;;;4920807;29;20063;-88
2021/04/27 06:17:09;;;;;;;22.60;16.00;;;;;;;;;;4920022;29;20360;-88
2021/04/27 06:19:35;;;;;;;18.90;14.93;;;;;;;;;;4920032;29;20059;-88
2021/04/27 06:22:01;;;;;;;16.73;11.60;;;;;;;;;;4920618;29;20028;-86
2021/04/27 06:24:27;;;;;;;16.05;12.50;;;;;;;;;;4920923;29;20323;-87
2021/04/27 06:26:53;;;;;;;15.50;11.77;;;;;;;;;;4919990;29;20135;-90
2021/04/27 06:29:20;;;;;;;15.23;10.93;;;;;;;;;;4923988;29;20044;-80
2021/04/27 06:31:46;;;;;;;16.83;11.65;;;;;;;;;;4922740;29;20059;-80
2021/04/27 06:34:12;;;;;;;19.45;13.40;;;;;;;;;;4924820;29;20028;-95
2021/04/27 06:42:46;;;;;;;14.45;10.93;;;;;;;;;;4928838;29;20071;-95
2021/04/27 06:45:13;;;;;;;15.50;11.15;;;;;;;;;;4926556;29;20024;-94
2021/04/27 06:47:39;;;;;;;14.57;11.52;;;;;;;;;;4924827;29;20020;-94
2021/04/27 06:50:06;;;;;;;20.70;12.95;;;;;;;;;;4929710;29;20024;-94
2021/04/27 06:52:32;;;;;;;17.98;12.20;;;;;;;;;;4930137;29;20130;-94
2021/04/27 06:54:58;;;;;;;21.80;13.10;;;;;;;;;;4928804;29;20115;-95
2021/04/27 06:57:24;;;;;;;16.80;11.32;;;;;;;;;;4931696;29;20028;-95
2021/04/27 06:59:51;;;;;;;23.15;14.68;;;;;;;;;;4925186;29;20408;-79
2021/04/27 07:02:17;;;;;;;18.15;13.48;;;;;;;;;;4923674;29;20048;-78
2021/04/27 07:04:43;;;;;;;18.45;11.65;;;;;;;;;;4923580;29;20091;-79
2021/04/27 07:07:09;;;;;;;17.02;12.68;;;;;;;;;;4923351;29;20489;-79
2021/04/27 07:09:36;;;;;;;20.20;12.70;;;;;;;;;;4923092;29;20411;-79
2021/04/27 07:12:02;;;;;;;17.42;13.00;;;;;;;;;;4923250;29;20032;-79
2021/04/27 07:14:28;;;;;;;25.48;15.50;;;;;;;;;;4923342;29;20036;-79
2021/04/27 07:16:54;;;;;;;24.08;17.45;;;;;;;;;;4922132;29;20050;-79
2021/04/27 07:19:20;;;;;;;27.27;18.05;;;;;;;;;;4923311;29;20032;-79
2021/04/27 07:21:46;;;;;;;26.65;15.98;;;;;;;;;;4922769;29;20032;-79
2021/04/27 07:24:12;;;;;;;26.00;15.63;;;;;;;;;;4923055;29;20039;-79
2021/04/27 07:26:44;;;;;;;42.38;22.73;;;;;;;;;;4922876;29;20056;-79
2021/04/27 07:29:11;;;;;;;46.30;23.92;;;;;;;;;;4923128;29;20036;-79
2021/04/27 07:31:37;;;;;;;40.00;22.65;;;;;;;;;;4923205;29;20036;-79
2021/04/27 07:34:04;;;;;;;23.65;14.07;;;;;;;;;;4923134;29;20332;-79
2021/04/27 07:36:30;;;;;;;20.52;12.52;;;;;;;;;;4922925;29;20330;-79
2021/04/27 07:38:56;;;;;;;17.73;12.48;;;;;;;;;;4925138;29;20435;-79
2021/04/27 07:41:22;;;;;;;15.40;11.27;;;;;;;;;;4949948;29;20023;-80
2021/04/27 07:43:48;;;;;;;17.75;12.63;;;;;;;;;;4944025;28;20478;-82
2021/04/27 07:46:14;;;;;;;17.67;12.82;;;;;;;;;;4944151;29;20024;-81
2021/04/27 07:48:41;;;;;;;16.08;11.68;;;;;;;;;;4938577;29;20070;-87
2021/04/27 07:51:07;;;;;;;20.35;14.98;;;;;;;;;;4960849;28;20031;-78
2021/04/27 07:53:33;;;;;;;18.75;14.02;;;;;;;;;;4960603;29;20024;-78
2021/04/27 07:55:59;;;;;;;18.10;12.20;;;;;;;;;;4960679;29;20040;-78
2021/04/27 07:58:25;;;;;;;18.77;13.15;;;;;;;;;;4943176;29;20063;-78
2021/04/27 08:00:51;;;;;;;18.10;11.52;;;;;;;;;;4960556;29;20023;-79
2021/04/27 08:03:17;;;;;;;14.50;11.70;;;;;;;;;;4960686;29;20028;-78
2021/04/27 08:05:46;;;;;;;15.60;12.15;;;;;;;;;;4960520;29;20319;-78
2021/04/27 08:08:12;;;;;;;25.15;16.02;;;;;;;;;;4960389;29;20034;-78
2021/04/27 08:10:39;;;;;;;21.30;14.45;;;;;;;;;;4960628;29;20114;-78
2021/04/27 08:13:05;;;;;;;22.63;15.20;;;;;;;;;;4960369;29;20035;-78
2021/04/27 08:15:31;;;;;;;16.08;13.00;;;;;;;;;;4943023;29;20307;-77
2021/04/27 08:17:59;;;;;;;18.67;12.68;;;;;;;;;;4960725;29;20038;-92
2021/04/27 08:20:26;;;;;;;19.38;13.35;;;;;;;;;;4960726;29;20297;-91
2021/04/27 08:22:52;;;;;;;19.58;13.02;;;;;;;;;;4960601;29;20031;-91
2021/04/27 08:25:18;;;;;;;20.15;14.75;;;;;;;;;;4960306;29;20047;-91
2021/04/27 08:27:45;;;;;;;26.17;16.48;;;;;;;;;;4959837;29;20102;-91
2021/04/27 08:30:12;;;;;;;18.80;13.00;;;;;;;;;;4959819;29;20051;-90
2021/04/27 08:32:38;;;;;;;16.15;11.98;;;;;;;;;;4959727;29;20058;-90
2021/04/27 08:35:06;;;;;;;16.88;11.73;;;;;;;;;;4959843;29;20030;-91
2021/04/27 08:37:32;;;;;;;23.33;13.52;;;;;;;;;;4959644;29;20024;-92
2021/04/27 08:39:59;;;;;;;16.05;13.18;;;;;;;;;;4959400;28;20023;-90
2021/04/27 08:42:26;;;;;;;19.00;12.55;;;;;;;;;;4959506;29;20494;-90
2021/04/27 08:44:52;;;;;;;17.67;12.93;;;;;;;;;;4942113;29;20172;-90
2021/04/27 08:47:22;;;;;;;26.38;17.20;;;;;;;;;;4942837;29;20027;-91
2021/04/27 08:49:48;;;;;;;29.75;17.45;;;;;;;;;;4959537;29;20057;-91
2021/04/27 08:52:14;;;;;;;25.48;16.10;;;;;;;;;;4959084;28;20027;-93
2021/04/27 08:54:41;;;;;;;23.80;15.65;;;;;;;;;;4959377;29;20031;-91
2021/04/27 08:57:07;;;;;;;27.80;16.73;;;;;;;;;;4942149;29;20055;-89
2021/04/27 08:59:33;;;;;;;18.95;13.18;;;;;;;;;;4959197;28;20039;-89
2021/04/27 09:02:00;;;;;;;18.38;13.38;;;;;;;;;;4959331;29;20038;-93
2021/04/27 09:04:47;;;;;;;17.98;12.90;;;;;;;;;;4941749;29;20028;-89
2021/04/27 09:07:17;;;;;;;25.95;17.40;;;;;;;;;;4959420;29;20027;-89
2021/04/27 09:09:44;;;;;;;22.75;15.82;;;;;;;;;;4959311;29;20074;-90
2021/04/27 09:12:11;;;;;;;36.65;23.00;;;;;;;;;;4942501;29;20445;-90
2021/04/27 09:14:38;;;;;;;20.27;14.48;;;;;;;;;;4959641;29;20399;-91
2021/04/27 09:17:05;;;;;;;20.52;15.38;;;;;;;;;;4958917;29;20422;-92
2021/04/27 09:19:41;;;;;;;23.70;15.00;;;;;;;;;;4942030;29;20038;-91
2021/04/27 09:22:24;;;;;;;20.38;14.73;;;;;;;;;;4941737;29;20039;-90
2021/04/27 09:24:51;;;;;;;17.73;13.67;;;;;;;;;;4901423;28;1177769;-90
2021/04/27 09:27:28;;;;;;;18.13;13.93;;;;;;;;;;4942958;29;20038;-91
2021/04/27 09:29:54;;;;;;;22.23;14.48;;;;;;;;;;4959558;29;20410;-90
2021/04/27 09:32:35;;;;;;;17.48;13.43;;;;;;;;;;4959600;29;20480;-92
2021/04/27 09:35:20;;;;;;;28.88;17.33;;;;;;;;;;4942200;29;20035;-91
2021/04/27 09:38:04;;;;;;;49.53;24.27;;;;;;;;;;4942456;29;20023;-90
2021/04/27 09:40:30;;;;;;;27.33;16.60;;;;;;;;;;4959640;29;20023;-90
2021/04/27 09:43:05;;;;;;;28.95;17.30;;;;;;;;;;4959685;29;20019;-91
2021/04/27 09:45:42;;;;;;;19.55;14.15;;;;;;;;;;4959870;29;20063;-90
2021/04/27 09:48:09;;;;;;;18.45;13.63;;;;;;;;;;4959583;29;20031;-91
2021/04/27 09:50:35;;;;;;;16.95;12.68;;;;;;;;;;4959359;29;20033;-91
2021/04/27 09:53:01;;;;;;;15.68;12.18;;;;;;;;;;4942656;29;20322;-91
2021/04/27 09:55:33;;;;;;;17.15;11.40;;;;;;;;;;4960320;29;20434;-93
2021/04/27 09:57:59;;;;;;;13.93;10.40;;;;;;;;;;4960735;29;20500;-92
2021/04/27 10:00:52;;;;;;;15.38;11.90;;;;;;;;;;4943258;29;20034;-93
2021/04/27 10:03:18;;;;;;;17.23;11.23;;;;;;;;;;4957283;28;20049;-91
2021/04/27 10:05:46;;;;;;;16.27;11.02;;;;;;;;;;4964081;29;20031;-89
2021/04/27 10:08:12;;;;;;;16.25;11.45;;;;;;;;;;4963811;29;20023;-90
2021/04/27 10:10:39;;;;;;;14.48;11.15;;;;;;;;;;4963204;29;20027;-91
2021/04/27 10:13:08;;;;;;;18.50;12.70;;;;;;;;;;4946358;29;20031;-92
2021/04/27 10:15:34;;;;;;;15.73;12.52;;;;;;;;;;4945965;29;20045;-91
2021/04/27 10:18:01;;;;;;;14.48;11.65;;;;;;;;;;4963062;29;20039;-90
2021/04/27 10:20:27;;;;;;;16.77;13.25;;;;;;;;;;4962954;29;20062;-90
2021/04/27 10:22:54;;;;;;;16.20;11.57;;;;;;;;;;4963196;29;20107;-91
2021/04/27 10:25:25;;;;;;;15.90;11.60;;;;;;;;;;4962883;29;20058;-91
2021/04/27 10:28:01;;;;;;;16.63;12.07;;;;;;;;;;4963180;29;20059;-91
2021/04/27 10:30:28;;;;;;;32.75;21.45;;;;;;;;;;4962996;29;20106;-90
2021/04/27 10:33:03;;;;;;;17.10;11.75;;;;;;;;;;4962496;28;20074;-92
2021/04/27 10:35:42;;;;;;;15.57;10.70;;;;;;;;;;4962781;29;20023;-90
2021/04/27 10:38:13;;;;;;;23.77;16.58;;;;;;;;;;4962416;28;20054;-91
2021/04/27 10:40:43;;;;;;;17.20;12.68;;;;;;;;;;4962752;29;20402;-90
2021/04/27 10:43:29;;;;;;;15.05;11.80;;;;;;;;;;4962771;29;20086;-90
2021/04/27 10:45:59;;;;;;;19.23;11.30;;;;;;;;;;4945603;29;20038;-92
2021/04/27 10:48:29;;;;;;;12.75;11.18;;;;;;;;;;4962530;28;20027;-92
2021/04/27 10:50:56;;;;;;;15.02;11.13;;;;;;;;;;4962678;29;20067;-92
2021/04/27 10:53:33;;;;;;;18.80;11.88;;;;;;;;;;4945709;29;20067;-89
2021/04/27 10:55:59;;;;;;;17.20;11.23;;;;;;;;;;4945678;29;20450;-91
2021/04/27 10:58:45;;;;;;;14.27;10.45;;;;;;;;;;4945234;29;20070;-92
2021/04/27 11:01:21;;;;;;;13.93;11.30;;;;;;;;;;4944924;29;20027;-91
2021/04/27 11:03:48;;;;;;;13.65;10.60;;;;;;;;;;4962487;29;20027;-91
2021/04/27 11:06:15;;;;;;;15.85;10.93;;;;;;;;;;4945062;29;20042;-86
2021/04/27 11:08:51;;;;;;;13.48;10.93;;;;;;;;;;4945271;29;20030;-90
2021/04/27 11:11:17;;;;;;;16.98;10.88;;;;;;;;;;4945242;29;20046;-90
2021/04/27 11:13:43;;;;;;;17.77;11.52;;;;;;;;;;4944520;29;20122;-90
2021/04/27 11:16:26;;;;;;;12.43;10.27;;;;;;;;;;4962319;29;20031;-90
2021/04/27 11:18:59;;;;;;;15.20;11.15;;;;;;;;;;4962223;29;20051;-91
2021/04/27 11:21:32;;;;;;;15.40;11.13;;;;;;;;;;4945055;29;20050;-91
2021/04/27 11:24:02;;;;;;;14.55;11.63;;;;;;;;;;4945156;29;20070;-91
2021/04/27 11:26:34;;;;;;;12.43;10.60;;;;;;;;;;4961828;28;20077;-91
2021/04/27 11:29:00;;;;;;;;;;;;;;;;;;4945018;29;20035;-91
2021/04/27 11:31:26;;;;;;;16.70;11.55;;;;;;;;;;4945026;29;20005;-90
2021/04/27 11:34:03;;;;;;;16.00;11.13;;;;;;;;;;4944669;29;20421;-91
2021/04/27 11:36:36;;;;;;;18.75;12.93;;;;;;;;;;4961776;29;20106;-91
2021/04/27 11:39:11;;;;;;;15.60;11.77;;;;;;;;;;4961851;29;20035;-91
2021/04/27 11:41:47;;;;;;;14.82;11.23;;;;;;;;;;4961812;29;20027;-91
2021/04/27 11:44:13;;;;;;;17.85;11.52;;;;;;;;;;4961625;29;20432;-90
2021/04/27 11:47:17;;;;;;;15.65;12.10;;;;;;;;;;4944686;29;20035;-91
2021/04/27 12:01:28;;;;;;;23.67;15.43;;;;;;;;;;5074571;27;20355;-92
2021/04/27 12:03:54;;;;;;;25.08;14.45;;;;;;;;;;5073975;28;20033;-92
2021/04/27 12:06:20;;;;;;;19.40;12.80;;;;;;;;;;5073640;28;20025;-92
2021/04/27 12:08:48;;;;;;;18.08;12.82;;;;;;;;;;5075137;28;20025;-93
2021/04/27 12:11:17;;;;;;;19.73;13.55;;;;;;;;;;5074869;28;20066;-92
2021/04/27 12:13:50;;;;;;;18.88;13.00;;;;;;;;;;5073742;28;20021;-92
2021/04/27 12:16:18;;;;;;;20.35;16.27;;;;;;;;;;5074541;28;20035;-92
2021/04/27 12:18:52;;;;;;;19.52;14.38;;;;;;;;;;5074462;28;20096;-92
2021/04/27 12:21:25;;;;;;;16.13;12.50;;;;;;;;;;5073618;28;20025;-91
2021/04/27 12:24:10;;;;;;;18.75;14.35;;;;;;;;;;5074488;28;20029;-92
2021/04/27 12:26:37;;;;;;;17.58;13.60;;;;;;;;;;5073896;28;20036;-93
2021/04/27 12:29:04;;;;;;;18.80;11.32;;;;;;;;;;5073114;28;20032;-92
2021/04/27 12:31:32;;;;;;;16.15;11.77;;;;;;;;;;5073602;28;20041;-93
2021/04/27 12:33:59;;;;;;;16.45;12.10;;;;;;;;;;5073404;28;20037;-92
2021/04/27 12:36:33;;;;;;;15.23;11.45;;;;;;;;;;5074239;28;20425;-92
2021/04/27 12:38:59;;;;;;;13.90;11.02;;;;;;;;;;5073103;28;20124;-92
2021/04/27 12:41:38;;;;;;;15.90;11.80;;;;;;;;;;5074138;28;20033;-91
2021/04/27 12:44:23;;;;;;;17.55;12.35;;;;;;;;;;5073134;28;20055;-91
2021/04/27 12:46:49;;;;;;;16.02;11.40;;;;;;;;;;5073852;28;20028;-91
2021/04/27 12:49:15;;;;;;;14.80;11.27;;;;;;;;;;5074112;28;20086;-91
2021/04/27 12:51:41;;;;;;;15.23;11.85;;;;;;;;;;5073820;28;20029;-92
2021/04/27 12:54:23;;;;;;;15.85;11.68;;;;;;;;;;5073724;28;20028;-92
2021/04/27 12:57:08;;;;;;;14.32;11.60;;;;;;;;;;5072823;28;20116;-92
2021/04/27 12:59:35;;;;;;;14.90;11.68;;;;;;;;;;5073279;28;20043;-92
2021/04/27 13:02:05;;;;;;;20.77;11.93;;;;;;;;;;5062458;28;20406;-93
2021/04/27 13:04:31;;;;;;;35.33;22.13;;;;;;;;;;5060484;28;20351;-94
2021/04/27 13:06:58;;;;;;;16.80;12.82;;;;;;;;;;5059532;28;20051;-93
2021/04/27 13:09:28;;;;;;;81.88;51.72;;;;;;;;;;5059615;28;20039;-92
2021/04/27 13:12:00;;;;;;;26.58;20.60;;;;;;;;;;5060361;28;20374;-93
2021/04/27 13:14:34;;;;;;;18.35;14.18;;;;;;;;;;5060536;28;20025;-93
2021/04/27 13:17:00;;;;;;;19.73;13.57;;;;;;;;;;5061341;28;20052;-92
2021/04/27 13:19:57;;;;;;;17.13;13.63;;;;;;;;;;5059756;28;20044;-94
2021/04/27 13:22:28;;;;;;;19.80;15.85;;;;;;;;;;5019392;28;20113;-92
2021/04/27 13:24:59;;;;;;;19.98;14.90;;;;;;;;;;5018659;28;20101;-92
2021/04/27 13:27:29;;;;;;;18.73;15.32;;;;;;;;;;5018612;28;20490;-92
2021/04/27 13:30:05;;;;;;;18.58;14.95;;;;;;;;;;5002109;28;20102;-93
2021/04/27 13:32:31;;;;;;;22.58;16.20;;;;;;;;;;5018286;28;20113;-93
2021/04/27 13:35:14;;;;;;;18.33;14.35;;;;;;;;;;5018464;28;20034;-92
2021/04/27 13:37:40;;;;;;;19.45;15.45;;;;;;;;;;5018685;28;20037;-93
2021/04/27 13:40:07;;;;;;;20.02;15.73;;;;;;;;;;5001782;28;20034;-92
2021/04/27 13:42:33;;;;;;;17.23;14.32;;;;;;;;;;5002099;28;20084;-93
2021/04/27 13:44:59;;;;;;;17.42;14.77;;;;;;;;;;5018115;28;20331;-92
2021/04/27 13:47:25;;;;;;;24.80;16.75;;;;;;;;;;5018183;28;20022;-91
2021/04/27 13:49:51;;;;;;;21.55;15.93;;;;;;;;;;5001814;28;20026;-92
2021/04/27 13:52:17;;;;;;;19.17;15.52;;;;;;;;;;5001819;28;20045;-91
2021/04/27 13:54:43;;;;;;;16.70;13.77;;;;;;;;;;5001731;28;20030;-91
2021/04/27 13:57:09;;;;;;;18.30;13.40;;;;;;;;;;5019834;28;20026;-90
2021/04/27 13:59:35;;;;;;;17.88;13.77;;;;;;;;;;5053258;28;20048;-88
2021/04/27 14:02:02;;;;;;;19.20;13.55;;;;;;;;;;5058875;28;20025;-92
2021/04/27 14:04:28;;;;;;;19.33;13.90;;;;;;;;;;5058863;28;20052;-92
2021/04/27 14:06:54;;;;;;;17.60;13.10;;;;;;;;;;5059337;28;20047;-92
2021/04/27 14:09:20;;;;;;;18.65;14.02;;;;;;;;;;5059002;28;20028;-93
2021/04/27 14:11:46;;;;;;;18.75;11.27;;;;;;;;;;5058879;28;20021;-89
2021/04/27 14:14:12;;;;;;;16.45;12.10;;;;;;;;;;5057962;28;20029;-89
2021/04/27 14:16:38;;;;;;;16.05;11.25;;;;;;;;;;5059523;28;20287;-89
2021/04/27 14:19:04;;;;;;;13.82;10.50;;;;;;;;;;5058987;28;20033;-88
2021/04/27 14:21:48;;;;;;;18.13;12.32;;;;;;;;;;5058740;28;20025;-88
2021/04/27 14:24:15;;;;;;;15.10;11.05;;;;;;;;;;5058955;28;20025;-88
2021/04/27 14:26:41;;;;;;;15.00;11.18;;;;;;;;;;5058756;28;20025;-89
2021/04/27 14:29:07;;;;;;;15.07;12.13;;;;;;;;;;5059003;28;20029;-89
2021/04/27 14:31:34;;;;;;;15.68;11.68;;;;;;;;;;5058236;28;20148;-93
2021/04/27 14:34:00;;;;;;;19.35;12.27;;;;;;;;;;5040352;28;20029;-88
2021/04/27 14:36:26;;;;;;;37.78;14.93;;;;;;;;;;5039677;28;20037;-81
2021/04/27 14:38:52;;;;;;;21.60;13.43;;;;;;;;;;5037739;28;20114;-78
2021/04/27 14:41:18;;;;;;;20.88;12.90;;;;;;;;;;5041156;28;20025;-78
2021/04/27 14:43:44;;;;;;;13.65;11.20;;;;;;;;;;5036792;28;20125;-78
2021/04/27 14:46:10;;;;;;;17.13;11.30;;;;;;;;;;5037829;28;20022;-78
2021/04/27 14:48:37;;;;;;;15.75;11.63;;;;;;;;;;5045987;28;20048;-78
2021/04/27 14:51:06;;;;;;;17.73;11.80;;;;;;;;;;5056749;28;20031;-78
2021/04/27 14:53:32;;;;;;;14.40;11.18;;;;;;;;;;5058009;28;20056;-78
2021/04/27 14:55:58;;;;;;;16.05;10.77;;;;;;;;;;5057520;28;20025;-78
2021/04/27 14:58:24;;;;;;;14.45;11.13;;;;;;;;;;5057474;28;20031;-78
2021/04/27 15:00:50;;;;;;;19.33;12.20;;;;;;;;;;5056146;28;20362;-78
2021/04/27 15:03:16;;;;;;;15.73;11.55;;;;;;;;;;5057426;28;20059;-78
2021/04/27 15:05:42;;;;;;;16.40;11.70;;;;;;;;;;5057307;28;20031;-78
2021/04/27 15:08:13;;;;;;;15.77;12.30;;;;;;;;;;5056627;28;20033;-78
2021/04/27 15:10:39;;;;;;;16.52;11.10;;;;;;;;;;5056263;28;20024;-78
2021/04/27 15:13:05;;;;;;;19.65;13.02;;;;;;;;;;5057276;28;20025;-78
2021/04/27 15:15:31;;;;;;;20.85;13.68;;;;;;;;;;5057415;28;20067;-78
2021/04/27 15:17:57;;;;;;;18.85;12.73;;;;;;;;;;5056376;28;20450;-78
2021/04/27 15:20:24;;;;;;;21.48;14.18;;;;;;;;;;5057239;28;20033;-78
2021/04/27 15:22:50;;;;;;;20.58;14.55;;;;;;;;;;5055997;28;20025;-78
2021/04/27 15:25:17;;;;;;;18.02;12.77;;;;;;;;;;5056718;28;20027;-78
2021/04/27 15:27:44;;;;;;;20.10;13.73;;;;;;;;;;5055123;28;20021;-78
2021/04/27 15:30:10;;;;;;;22.13;13.80;;;;;;;;;;5049300;28;20407;-79
2021/04/27 15:32:40;;;;;;;16.30;12.38;;;;;;;;;;5047800;28;20033;-80
2021/04/27 15:35:07;;;;;;;17.00;12.50;;;;;;;;;;5041432;28;20045;-78
2021/04/27 15:37:33;;;;;;;16.92;11.82;;;;;;;;;;5044589;28;20108;-79
2021/04/27 15:40:00;;;;;;;20.95;12.82;;;;;;;;;;5038517;28;20049;-79
2021/04/27 15:42:26;;;;;;;16.20;11.88;;;;;;;;;;5053901;28;20041;-79
2021/04/27 15:44:52;;;;;;;30.05;17.58;;;;;;;;;;5047719;28;20021;-79
2021/04/27 15:47:18;;;;;;;29.42;17.88;;;;;;;;;;5056674;28;20025;-79
2021/04/27 15:49:44;;;;;;;45.45;24.80;;;;;;;;;;5042642;28;20029;-79
2021/04/27 15:52:10;;;;;;;24.27;16.40;;;;;;;;;;5036960;28;20030;-79
2021/04/27 15:54:37;;;;;;;18.80;13.07;;;;;;;;;;5036993;28;20443;-79